Time;durP1;ratioP1;P1;durP2;ratioP2;P2;SDS_P1;SDS_P2;PMS_P1;PMS_P2;Temp;Humidity;BMP_temperature;BMP_pressure;BME280_temperature;BME280_humidity;BME280_pressure;Samples;Min_cycle;Max_cycle;Signal;HPM_P1;HPM_P2
2022/04/27 00:01:39;;;;;;;0.00;0.00;;;;;;;16.11;74.53;98926.97;5084145;28;20099;-75
2022/04/27 00:04:05;;;;;;;0.00;0.00;;;;;;;16.07;74.29;98917.91;5072518;28;20111;-75
2022/04/27 00:06:30;;;;;;;0.10;0.10;;;;;;;16.07;74.59;98922.53;5080425;28;20030;-74
2022/04/27 00:08:56;;;;;;;0.00;0.00;;;;;;;16.09;74.33;98918.38;5076292;28;20024;-74
2022/04/27 00:11:22;;;;;;;0.00;0.00;;;;;;;16.11;74.20;98918.06;5071472;28;20036;-75
2022/04/27 00:13:47;;;;;;;0.00;0.00;;;;;;;16.09;74.39;98918.38;5085392;28;20032;-75
2022/04/27 00:16:13;;;;;;;0.00;0.00;;;;;;;16.09;74.24;98917.59;5072644;28;20032;-75
2022/04/27 00:18:38;;;;;;;0.00;0.00;;;;;;;16.05;74.34;98917.44;5071587;28;20031;-75
2022/04/27 00:21:04;;;;;;;0.00;0.00;;;;;;;16.06;74.37;98921.69;5072123;28;20073;-75
2022/04/27 00:23:32;;;;;;;0.00;0.00;;;;;;;16.03;74.50;98913.44;5072102;28;20115;-74
2022/04/27 00:25:57;;;;;;;0.00;0.00;;;;;;;15.92;74.36;98915.69;5071995;28;20089;-74
2022/04/27 00:28:23;;;;;;;0.10;0.10;;;;;;;15.88;75.04;98912.81;5075450;28;20024;-76
2022/04/27 00:30:48;;;;;;;0.00;0.00;;;;;;;15.85;74.79;98905.34;5076235;28;20031;-75
2022/04/27 00:33:15;;;;;;;0.00;0.00;;;;;;;15.84;74.75;98909.94;5080659;28;20036;-75
2022/04/27 00:35:41;;;;;;;0.00;0.00;;;;;;;15.79;75.16;98895.78;5076314;28;20412;-76
2022/04/27 00:38:06;;;;;;;0.10;0.10;;;;;;;15.77;75.40;98893.41;5071530;28;20024;-75
2022/04/27 00:40:32;;;;;;;0.00;0.00;;;;;;;15.75;75.09;98894.84;5073276;28;20128;-73
2022/04/27 00:42:57;;;;;;;0.00;0.00;;;;;;;15.75;75.47;98884.03;5062319;28;20033;-73
2022/04/27 00:45:22;;;;;;;0.00;0.00;;;;;;;15.75;75.13;98878.66;5071906;28;20032;-73
2022/04/27 00:47:48;;;;;;;0.00;0.00;;;;;;;15.72;75.03;98879.28;5070160;28;20032;-73
2022/04/27 00:50:13;;;;;;;0.03;0.03;;;;;;;15.63;75.32;98876.56;5055229;28;20108;-74
2022/04/27 00:52:39;;;;;;;0.00;0.00;;;;;;;15.59;75.04;98883.69;5065982;28;20024;-75
2022/04/27 00:55:05;;;;;;;0.00;0.00;;;;;;;15.51;74.94;98877.97;5091593;28;20042;-76
2022/04/27 00:57:31;;;;;;;0.00;0.00;;;;;;;15.42;75.07;98874.44;5078244;28;20115;-75
2022/04/27 00:59:56;;;;;;;0.00;0.00;;;;;;;15.30;75.55;98874.25;5085135;28;20150;-75
2022/04/27 01:02:22;;;;;;;0.00;0.00;;;;;;;15.24;75.83;98875.50;5087430;28;20028;-75
2022/04/27 01:04:48;;;;;;;0.00;0.00;;;;;;;15.20;75.70;98865.31;5070499;28;20040;-75
2022/04/27 01:07:14;;;;;;;0.00;0.00;;;;;;;15.21;75.70;98863.44;5067141;28;20469;-75
2022/04/27 01:09:40;;;;;;;0.00;0.00;;;;;;;15.17;75.51;98863.28;5071562;28;20036;-74
2022/04/27 01:12:06;;;;;;;0.10;0.10;;;;;;;15.19;75.68;98855.66;5070762;28;20381;-74
2022/04/27 01:14:42;;;;;;;0.00;0.00;;;;;;;15.16;75.63;98866.25;5084784;28;20032;-75
2022/04/27 01:17:08;;;;;;;0.00;0.00;;;;;;;15.07;75.83;98857.34;5068979;28;20032;-75
2022/04/27 01:19:34;;;;;;;0.00;0.00;;;;;;;15.07;76.00;98858.13;5070790;28;20082;-73
2022/04/27 01:21:59;;;;;;;0.00;0.00;;;;;;;15.00;76.21;98853.22;5072221;28;20078;-73
2022/04/27 01:24:25;;;;;;;0.10;0.10;;;;;;;14.99;76.31;98845.41;5071555;28;20036;-74
2022/04/27 01:26:52;;;;;;;0.00;0.00;;;;;;;15.06;75.97;98853.84;5071381;28;20103;-74
2022/04/27 01:29:18;;;;;;;0.10;0.10;;;;;;;15.02;76.19;98844.81;5074194;28;20052;-74
2022/04/27 01:31:45;;;;;;;0.00;0.00;;;;;;;15.08;75.75;98843.56;5084270;28;20028;-75
2022/04/27 01:34:11;;;;;;;0.00;0.00;;;;;;;15.11;75.39;98844.84;5083268;28;20032;-75
2022/04/27 01:36:36;;;;;;;0.00;0.00;;;;;;;15.10;75.43;98843.25;5060651;28;20094;-75
2022/04/27 01:39:03;;;;;;;0.00;0.00;;;;;;;15.09;75.25;98850.56;5070678;28;20028;-75
2022/04/27 01:41:28;;;;;;;0.00;0.00;;;;;;;15.04;75.16;98842.63;5065585;28;20038;-75
2022/04/27 01:43:54;;;;;;;0.00;0.00;;;;;;;15.05;75.21;98844.22;5072476;28;20114;-75
2022/04/27 01:46:19;;;;;;;0.00;0.00;;;;;;;15.05;75.06;98841.50;5084679;28;20039;-74
2022/04/27 01:48:44;;;;;;;0.00;0.00;;;;;;;15.12;74.55;98849.91;5091324;28;20028;-74
2022/04/27 01:51:11;;;;;;;0.00;0.00;;;;;;;15.09;75.00;98847.03;5072272;28;20055;-75
2022/04/27 01:56:20;;;;;;;0.00;0.00;;;;;;;15.04;74.91;98839.91;5050698;28;20185;-75
2022/04/27 01:58:46;;;;;;;0.00;0.00;;;;;;;14.98;74.99;98833.88;5062758;28;20054;-75
2022/04/27 02:01:12;;;;;;;0.00;0.00;;;;;;;14.97;74.81;98834.97;5063652;28;20041;-76
2022/04/27 02:03:39;;;;;;;0.00;0.00;;;;;;;14.96;74.90;98844.16;5075655;28;20395;-75
2022/04/27 02:06:06;;;;;;;0.00;0.00;;;;;;;14.99;74.63;98845.41;5070667;28;20036;-75
2022/04/27 02:08:31;;;;;;;0.08;0.08;;;;;;;15.01;74.70;98845.91;5081877;28;20027;-76
2022/04/27 02:10:56;;;;;;;0.00;0.00;;;;;;;14.98;74.78;98843.84;5080479;28;20036;-75
2022/04/27 02:13:22;;;;;;;0.10;0.10;;;;;;;14.92;74.88;98843.19;5089770;28;20073;-75
2022/04/27 02:15:48;;;;;;;0.00;0.00;;;;;;;14.91;74.88;98849.66;5075098;28;20081;-75
2022/04/27 02:18:13;;;;;;;0.03;0.03;;;;;;;14.89;75.07;98847.28;5060712;28;20024;-75
2022/04/27 02:20:38;;;;;;;0.05;0.05;;;;;;;14.87;75.07;98854.09;5060943;28;20036;-77
2022/04/27 02:23:04;;;;;;;0.00;0.00;;;;;;;14.84;75.20;98852.81;5049142;28;20021;-76
2022/04/27 02:25:29;;;;;;;0.00;0.00;;;;;;;14.87;75.14;98849.50;5067996;28;20100;-76
2022/04/27 02:27:55;;;;;;;0.10;0.10;;;;;;;14.91;74.88;98856.97;5051553;28;20024;-74
2022/04/27 02:30:21;;;;;;;0.05;0.05;;;;;;;14.87;75.21;98854.88;5065244;28;20565;-75
2022/04/27 02:32:47;;;;;;;0.10;0.10;;;;;;;14.85;75.32;98864.38;5071821;28;20438;-74
2022/04/27 02:35:14;;;;;;;0.10;0.10;;;;;;;14.77;75.33;98857.03;5070688;28;20029;-74
2022/04/27 02:37:40;;;;;;;0.05;0.05;;;;;;;14.72;75.49;98866.03;5074286;28;20032;-75
2022/04/27 02:40:08;;;;;;;0.08;0.08;;;;;;;14.73;75.51;98867.63;5082403;28;20432;-75
2022/04/27 02:42:34;;;;;;;0.10;0.10;;;;;;;14.64;75.59;98856.00;5073447;28;20035;-75
2022/04/27 02:44:59;;;;;;;0.00;0.00;;;;;;;14.58;75.75;98863.41;5080940;28;20032;-75
2022/04/27 02:47:25;;;;;;;0.00;0.00;;;;;;;14.50;75.55;98862.25;5066040;28;20031;-75
2022/04/27 02:52:35;;;;;;;0.00;0.00;;;;;;;14.39;76.23;98877.03;5066849;28;20036;-75
2022/04/27 02:55:01;;;;;;;0.03;0.03;;;;;;;14.33;76.34;98864.78;5069726;28;20032;-75
2022/04/27 02:57:26;;;;;;;0.00;0.00;;;;;;;14.31;76.56;98865.09;5064910;28;20025;-75
2022/04/27 02:59:52;;;;;;;0.00;0.00;;;;;;;14.32;76.70;98866.69;5086300;28;20081;-76
2022/04/27 03:02:17;;;;;;;0.10;0.10;;;;;;;14.32;76.85;98866.69;5079989;28;20024;-76
2022/04/27 03:04:43;;;;;;;0.05;0.05;;;;;;;14.34;76.99;98866.38;5076581;28;20068;-76
2022/04/27 03:07:09;;;;;;;0.10;0.10;;;;;;;14.33;76.76;98864.78;5069081;28;20048;-74
2022/04/27 03:09:35;;;;;;;0.10;0.10;;;;;;;14.36;76.90;98870.34;5070287;28;20108;-76
2022/04/27 03:12:00;;;;;;;0.00;0.00;;;;;;;14.40;76.92;98874.03;5069535;28;20075;-74
2022/04/27 03:14:28;;;;;;;0.00;0.00;;;;;;;14.45;76.31;98866.94;5070924;28;20040;-75
2022/04/27 03:16:55;;;;;;;0.00;0.00;;;;;;;14.45;76.42;98873.09;5066504;28;20027;-76
2022/04/27 03:19:20;;;;;;;0.00;0.00;;;;;;;14.48;76.46;98875.19;5074357;28;20047;-75
2022/04/27 03:21:46;;;;;;;0.10;0.10;;;;;;;14.48;76.36;98877.09;5072265;28;20476;-75
2022/04/27 03:24:12;;;;;;;0.10;0.10;;;;;;;14.50;76.25;98880.25;5072916;28;20028;-75
2022/04/27 03:26:37;;;;;;;0.00;0.00;;;;;;;14.49;76.13;98882.19;5073662;28;20036;-75
2022/04/27 03:29:05;;;;;;;0.03;0.03;;;;;;;14.49;76.29;98878.69;5060500;28;20020;-76
2022/04/27 03:31:32;;;;;;;0.00;0.00;;;;;;;14.50;76.21;98891.84;5073881;28;20035;-75
2022/04/27 03:33:58;;;;;;;0.10;0.10;;;;;;;14.49;76.07;98886.75;5074972;28;20043;-74
2022/04/27 03:36:24;;;;;;;0.05;0.05;;;;;;;14.59;75.70;98886.50;5069615;28;20104;-75
2022/04/27 03:38:50;;;;;;;0.00;0.00;;;;;;;14.66;75.63;98889.59;5068139;28;20028;-72
2022/04/27 03:41:19;;;;;;;0.00;0.00;;;;;;;14.79;75.49;98892.53;5072347;28;20495;-75
2022/04/27 03:43:45;;;;;;;0.00;0.00;;;;;;;14.96;75.35;98891.84;5084717;28;20028;-76
2022/04/27 03:46:10;;;;;;;0.10;0.10;;;;;;;15.11;74.79;98891.44;5072533;28;20024;-75
2022/04/27 03:48:36;;;;;;;0.10;0.10;;;;;;;15.32;74.00;98896.28;5074135;28;20029;-78
2022/04/27 03:51:01;;;;;;;0.00;0.00;;;;;;;15.53;73.48;98900.00;5072798;28;20055;-78
2022/04/27 03:53:27;;;;;;;0.00;0.00;;;;;;;15.75;73.08;98894.84;5080749;28;20024;-73
2022/04/27 03:55:52;;;;;;;0.00;0.00;;;;;;;16.06;72.22;98900.13;5090223;28;20032;-78
2022/04/27 03:58:19;;;;;;;0.38;0.38;;;;;;;16.35;71.30;98893.31;5080142;28;20032;-76
2022/04/27 04:00:44;;;;;;;0.00;0.00;;;;;;;16.56;70.13;98915.06;5073074;28;20085;-76
2022/04/27 04:03:11;;;;;;;0.05;0.05;;;;;;;16.77;69.51;98903.59;5088865;28;20028;-77
2022/04/27 04:05:37;;;;;;;0.00;0.00;;;;;;;17.07;68.96;98907.22;5075924;28;20119;-76
2022/04/27 04:08:03;;;;;;;0.00;0.00;;;;;;;17.38;68.14;98902.66;5067384;28;20115;-76
2022/04/27 04:10:29;;;;;;;0.00;0.00;;;;;;;17.69;67.21;98907.75;5087287;28;20470;-76
2022/04/27 04:12:54;;;;;;;0.00;0.00;;;;;;;18.12;66.44;98919.44;5072892;28;20095;-77
2022/04/27 04:15:20;;;;;;;0.90;0.57;;;;;;;18.46;65.17;98914.88;5072531;28;20028;-79
2022/04/27 04:17:45;;;;;;;0.00;0.00;;;;;;;18.95;63.59;98924.34;5074502;28;20024;-79
2022/04/27 04:20:13;;;;;;;0.10;0.10;;;;;;;19.32;61.67;98917.06;5075141;28;20034;-78
2022/04/27 04:22:39;;;;;;;0.10;0.10;;;;;;;19.68;59.56;98928.28;5072058;28;20083;-77
2022/04/27 04:30:33;;;;;;;0.00;0.00;;;;;;;20.89;55.51;98929.44;5077861;28;20042;-77
2022/04/27 04:32:59;;;;;;;0.05;0.05;;;;;;;21.34;54.42;98948.47;5071288;28;20028;-75
2022/04/27 04:35:24;;;;;;;0.00;0.00;;;;;;;21.72;53.25;98938.91;5072285;28;20033;-75
2022/04/27 04:37:50;;;;;;;0.00;0.00;;;;;;;22.09;52.25;98943.22;5070216;28;20389;-76
2022/04/27 04:40:15;;;;;;;0.10;0.10;;;;;;;22.43;51.51;98944.34;5071370;28;20047;-78
2022/04/27 04:42:40;;;;;;;0.00;0.00;;;;;;;22.81;49.53;98944.69;5071796;28;20028;-75
2022/04/27 04:45:06;;;;;;;0.00;0.00;;;;;;;23.08;49.76;98956.47;5070123;28;20040;-75
2022/04/27 04:47:32;;;;;;;0.10;0.10;;;;;;;23.47;48.76;98956.41;5071365;28;20024;-75
2022/04/27 04:49:57;;;;;;;0.00;0.00;;;;;;;23.88;47.86;98952.34;5071565;28;20041;-76
2022/04/27 04:52:23;;;;;;;0.00;0.00;;;;;;;24.23;47.03;98946.63;5071767;28;20025;-75
2022/04/27 04:54:48;;;;;;;0.00;0.00;;;;;;;24.63;46.13;98952.56;5071786;28;20537;-76
2022/04/27 04:57:14;;;;;;;0.00;0.00;;;;;;;24.89;45.43;98951.72;5071663;28;20020;-76
2022/04/27 04:59:40;;;;;;;0.00;0.00;;;;;;;25.25;44.46;98962.19;5071663;28;20024;-75
2022/04/27 05:02:06;;;;;;;0.00;0.00;;;;;;;25.55;43.79;98964.84;5071372;28;20035;-76
2022/04/27 05:04:31;;;;;;;0.00;0.00;;;;;;;25.89;43.39;98959.22;5070154;28;20094;-75
2022/04/27 05:06:57;;;;;;;0.00;0.00;;;;;;;26.14;42.28;98964.06;5071751;28;20111;-76
2022/04/27 05:09:22;;;;;;;0.00;0.00;;;;;;;26.40;41.25;98967.72;5071285;28;20104;-76
2022/04/27 05:11:47;;;;;;;0.00;0.00;;;;;;;26.50;40.77;98971.69;5071575;28;20025;-75
2022/04/27 05:14:13;;;;;;;0.00;0.00;;;;;;;26.67;40.72;98973.72;5069933;28;20456;-75
2022/04/27 05:16:39;;;;;;;0.00;0.00;;;;;;;26.90;40.23;98969.88;5071412;28;20448;-75
2022/04/27 05:19:04;;;;;;;0.00;0.00;;;;;;;26.97;39.72;98966.38;5071493;28;20032;-76
2022/04/27 05:21:30;;;;;;;0.00;0.00;;;;;;;27.05;39.59;98973.47;5071460;28;20503;-75
2022/04/27 05:23:56;;;;;;;0.00;0.00;;;;;;;27.13;39.97;98974.25;5071047;28;20093;-77
2022/04/27 05:26:22;;;;;;;0.00;0.00;;;;;;;27.24;39.64;98975.03;5071071;28;20029;-77
2022/04/27 05:34:16;;;;;;;0.00;0.00;;;;;;;27.10;39.74;98977.75;5070712;28;20526;-76
2022/04/27 05:36:41;;;;;;;0.00;0.00;;;;;;;27.14;39.07;98986.81;5070885;28;20025;-77
2022/04/27 05:39:07;;;;;;;0.30;0.30;;;;;;;27.24;39.34;98986.03;5070897;28;20028;-77
2022/04/27 05:41:32;;;;;;;0.00;0.00;;;;;;;27.21;38.82;98989.56;5071372;28;20033;-77
2022/04/27 05:43:57;;;;;;;0.00;0.00;;;;;;;27.28;38.47;98986.03;5071270;28;20119;-76
2022/04/27 05:46:23;;;;;;;0.00;0.00;;;;;;;27.06;39.07;98987.94;5070858;28;20024;-76
2022/04/27 05:48:49;;;;;;;0.00;0.00;;;;;;;26.65;39.96;98986.25;5071106;28;20024;-76
2022/04/27 05:51:14;;;;;;;0.35;0.10;;;;;;;26.48;40.49;98985.78;5070563;28;20113;-77
2022/04/27 05:53:41;;;;;;;0.10;0.10;;;;;;;26.36;40.82;98986.91;5070997;28;20420;-76
2022/04/27 05:56:07;;;;;;;0.00;0.00;;;;;;;26.36;41.25;98989.63;5070881;28;20491;-77
2022/04/27 05:58:33;;;;;;;0.00;0.00;;;;;;;26.48;40.60;98994.00;5070709;28;20491;-77
2022/04/27 06:00:58;;;;;;;0.00;0.00;;;;;;;26.65;40.93;98995.25;5070840;28;20033;-77
2022/04/27 06:03:24;;;;;;;0.08;0.08;;;;;;;26.77;40.31;98987.88;5070562;28;20025;-77
2022/04/27 06:05:49;;;;;;;0.00;0.00;;;;;;;26.92;39.89;98989.50;5070998;28;20461;-77
2022/04/27 06:08:15;;;;;;;0.00;0.00;;;;;;;26.83;39.09;98989.88;5070953;28;20111;-77
2022/04/27 06:10:40;;;;;;;0.52;0.52;;;;;;;26.57;40.55;98993.66;5069484;28;20037;-76
2022/04/27 06:13:06;;;;;;;0.00;0.00;;;;;;;26.60;40.70;98995.63;5070894;28;20392;-76
2022/04/27 06:15:31;;;;;;;0.00;0.00;;;;;;;26.68;40.39;98996.44;5070551;28;20031;-77
2022/04/27 06:17:57;;;;;;;0.00;0.00;;;;;;;26.57;40.11;98999.13;5070836;28;20024;-77
2022/04/27 06:20:22;;;;;;;0.00;0.00;;;;;;;26.40;40.67;98999.84;5070898;28;20035;-76
2022/04/27 06:22:48;;;;;;;0.00;0.00;;;;;;;26.16;41.57;99007.56;5070633;28;20020;-76
2022/04/27 06:25:13;;;;;;;0.00;0.00;;;;;;;26.04;41.53;99012.13;5068951;28;20025;-77
2022/04/27 06:27:39;;;;;;;1.02;0.13;;;;;;;25.75;42.74;99015.84;5069469;28;20031;-77
2022/04/27 06:30:05;;;;;;;0.10;0.10;;;;;;;25.65;42.97;99018.13;5070447;28;20101;-77
2022/04/27 06:32:34;;;;;;;0.00;0.00;;;;;;;25.48;43.74;99024.22;5070356;28;20115;-77
2022/04/27 06:35:00;;;;;;;0.00;0.00;;;;;;;25.41;44.40;99023.00;5070665;28;20033;-77
2022/04/27 06:37:27;;;;;;;0.00;0.00;;;;;;;25.38;43.83;99025.72;5070441;28;20644;-77
2022/04/27 06:39:52;;;;;;;0.00;0.00;;;;;;;25.18;42.82;99022.34;5070832;28;20060;-77
2022/04/27 06:42:24;;;;;;;0.10;0.10;;;;;;;24.89;43.18;99028.28;5070608;28;20052;-77
2022/04/27 06:44:49;;;;;;;0.00;0.00;;;;;;;24.71;44.57;99028.06;5070568;28;20417;-77
2022/04/27 06:47:15;;;;;;;0.00;0.00;;;;;;;24.71;45.09;99025.34;5069034;28;20035;-77
2022/04/27 06:49:40;;;;;;;0.00;0.00;;;;;;;24.61;44.14;99036.91;5071611;28;20086;-77
2022/04/27 06:52:06;;;;;;;0.00;0.00;;;;;;;24.51;44.77;99032.88;5073919;28;20020;-77
2022/04/27 06:54:32;;;;;;;0.00;0.00;;;;;;;24.43;45.55;99031.19;5074137;28;20029;-76
2022/04/27 06:56:57;;;;;;;0.03;0.03;;;;;;;24.36;45.37;99042.81;5074449;28;20100;-77
2022/04/27 06:59:23;;;;;;;0.00;0.00;;;;;;;24.09;45.65;99042.03;5073962;28;20468;-76
2022/04/27 07:01:49;;;;;;;0.03;0.03;;;;;;;23.83;45.90;99040.81;5074049;28;20020;-76
2022/04/27 07:04:15;;;;;;;0.00;0.00;;;;;;;23.53;46.32;99044.22;5072465;28;20024;-76
2022/04/27 07:06:41;;;;;;;0.00;0.00;;;;;;;23.23;46.12;99036.69;5073925;28;20028;-76
2022/04/27 07:09:13;;;;;;;0.10;0.10;;;;;;;22.98;48.11;99030.72;5073684;28;20098;-76
2022/04/27 07:11:40;;;;;;;0.00;0.00;;;;;;;22.91;48.59;99036.81;5073873;28;20024;-76
2022/04/27 07:14:05;;;;;;;0.00;0.00;;;;;;;22.93;48.72;99028.28;5073642;28;20039;-76
2022/04/27 07:16:31;;;;;;;0.08;0.08;;;;;;;23.03;48.71;99039.41;5072569;28;20563;-76
2022/04/27 07:18:56;;;;;;;0.00;0.00;;;;;;;23.15;49.33;99035.72;5073528;28;20032;-76
2022/04/27 07:21:22;;;;;;;0.00;0.00;;;;;;;23.18;48.58;99040.47;5073530;28;20028;-76
2022/04/27 07:23:49;;;;;;;0.15;0.15;;;;;;;23.17;47.59;99032.66;5072361;28;20055;-76
2022/04/27 07:26:14;;;;;;;0.82;0.80;;;;;;;23.28;46.32;99027.41;5073411;28;20107;-76
2022/04/27 07:28:41;;;;;;;0.00;0.00;;;;;;;23.20;46.19;99026.47;5072352;28;20111;-76
2022/04/27 07:31:07;;;;;;;0.00;0.00;;;;;;;23.10;47.12;99030.56;5073251;28;20086;-76
2022/04/27 07:33:32;;;;;;;0.25;0.13;;;;;;;22.94;46.76;99030.63;5071895;28;20032;-76
2022/04/27 07:35:58;;;;;;;0.08;0.08;;;;;;;22.66;45.35;99026.19;5073466;28;20078;-76
2022/04/27 07:38:23;;;;;;;1.35;0.80;;;;;;;22.53;47.40;99027.47;5073253;28;20027;-76
2022/04/27 07:40:49;;;;;;;0.00;0.00;;;;;;;22.43;46.75;99028.03;5073453;28;20471;-75
2022/04/27 07:43:15;;;;;;;0.00;0.00;;;;;;;22.21;48.00;99027.53;5072920;28;20111;-76
2022/04/27 07:45:44;;;;;;;0.00;0.00;;;;;;;22.18;49.40;99031.75;5073337;28;20086;-76
2022/04/27 07:48:10;;;;;;;0.03;0.03;;;;;;;22.13;49.21;99029.31;5073096;28;20480;-76
2022/04/27 07:50:35;;;;;;;0.03;0.03;;;;;;;22.07;50.50;99034.22;5072677;28;20109;-76
2022/04/27 07:53:00;;;;;;;0.00;0.00;;;;;;;22.13;50.13;99026.59;5072940;28;20024;-76
2022/04/27 07:55:26;;;;;;;0.00;0.00;;;;;;;22.22;46.37;99037.28;5072635;28;20506;-76
2022/04/27 07:57:51;;;;;;;0.00;0.00;;;;;;;22.07;46.84;99031.50;5071780;28;20416;-76
2022/04/27 08:00:17;;;;;;;0.00;0.00;;;;;;;21.97;48.20;99023.88;5072048;28;20068;-76
2022/04/27 08:02:43;;;;;;;0.00;0.00;;;;;;;21.85;48.78;99021.22;5072720;28;20476;-76
2022/04/27 08:05:09;;;;;;;0.10;0.10;;;;;;;21.79;49.20;99019.91;5072618;28;20029;-76
2022/04/27 08:07:39;;;;;;;0.00;0.00;;;;;;;21.72;50.30;99015.88;5072877;28;20016;-75
2022/04/27 08:10:15;;;;;;;0.00;0.00;;;;;;;21.79;51.03;99018.00;5072740;28;20032;-77
2022/04/27 08:12:44;;;;;;;0.00;0.00;;;;;;;21.93;51.54;99023.00;5072764;28;20021;-76
2022/04/27 08:15:10;;;;;;;0.00;0.00;;;;;;;22.11;52.39;99028.09;5072560;28;20032;-77
2022/04/27 08:17:35;;;;;;;0.00;0.00;;;;;;;22.22;50.14;99020.94;5072686;28;20191;-78
2022/04/27 08:22:46;;;;;;;0.00;0.00;;;;;;;22.17;47.48;99027.44;5072294;28;20035;-78
2022/04/27 08:25:11;;;;;;;0.00;0.00;;;;;;;22.11;49.83;99020.69;5071098;28;20024;-78
2022/04/27 08:27:37;;;;;;;0.00;0.00;;;;;;;22.11;48.65;99023.41;5072192;28;20028;-77
2022/04/27 08:30:02;;;;;;;0.00;0.00;;;;;;;22.13;47.71;99023.06;5071222;28;20029;-78
2022/04/27 08:32:28;;;;;;;0.00;0.00;;;;;;;22.14;49.99;99020.00;5072115;28;20051;-77
2022/04/27 08:34:53;;;;;;;0.00;0.00;;;;;;;22.12;47.51;99014.09;5072411;28;20035;-77
2022/04/27 08:37:19;;;;;;;0.00;0.00;;;;;;;22.11;48.83;99011.75;5070731;28;20119;-78
2022/04/27 08:39:44;;;;;;;0.10;0.10;;;;;;;22.12;48.78;99008.66;5070932;28;20491;-78
2022/04/27 08:42:10;;;;;;;0.00;0.00;;;;;;;22.10;48.65;99002.75;5070255;28;20032;-78
2022/04/27 08:44:35;;;;;;;0.00;0.00;;;;;;;22.02;48.08;98998.28;5070877;28;20024;-78
2022/04/27 08:47:04;;;;;;;0.00;0.00;;;;;;;22.00;47.92;99003.31;5071880;28;20025;-78
2022/04/27 08:49:34;;;;;;;0.00;0.00;;;;;;;21.94;46.46;98996.56;5070395;28;20028;-78
2022/04/27 08:52:01;;;;;;;0.20;0.05;;;;;;;22.02;47.97;99001.81;5071722;28;20029;-78
2022/04/27 08:54:28;;;;;;;0.00;0.00;;;;;;;22.07;47.98;98995.31;5070473;28;20025;-78
2022/04/27 08:56:53;;;;;;;0.00;0.00;;;;;;;21.97;44.75;98995.84;5072045;28;20076;-78
2022/04/27 08:59:19;;;;;;;0.22;0.22;;;;;;;21.86;45.07;98990.97;5070286;28;20085;-78
2022/04/27 09:01:44;;;;;;;0.20;0.20;;;;;;;21.76;45.89;98996.91;5070397;28;20031;-78
2022/04/27 09:04:15;;;;;;;1.27;0.68;;;;;;;21.78;45.88;98993.88;5071456;28;20106;-78
2022/04/27 09:06:41;;;;;;;0.13;0.13;;;;;;;21.79;47.37;98989.97;5071723;28;20107;-78
2022/04/27 09:09:13;;;;;;;0.40;0.38;;;;;;;21.76;42.81;98994.19;5070348;28;20119;-77
2022/04/27 09:11:39;;;;;;;0.03;0.03;;;;;;;21.74;44.33;98991.06;5071034;28;20017;-79
2022/04/27 09:14:09;;;;;;;0.10;0.10;;;;;;;21.83;45.99;98983.47;5071736;28;20406;-78
2022/04/27 09:22:10;;;;;;;0.13;0.13;;;;;;;21.98;45.81;98981.09;5071362;28;20027;-79
2022/04/27 09:24:53;;;;;;;0.00;0.00;;;;;;;22.04;45.59;98976.94;5071529;28;20033;-79
2022/04/27 09:27:23;;;;;;;0.10;0.10;;;;;;;22.13;45.88;98976.75;5071479;28;20492;-79
2022/04/27 09:30:02;;;;;;;0.08;0.08;;;;;;;22.10;42.60;98980.19;5070136;28;20028;-79
2022/04/27 09:32:28;;;;;;;0.10;0.10;;;;;;;22.18;42.57;98979.19;5071120;28;20021;-79
2022/04/27 09:34:57;;;;;;;0.03;0.03;;;;;;;22.26;41.39;98978.22;5069995;28;20036;-78
2022/04/27 09:37:24;;;;;;;0.00;0.00;;;;;;;22.22;43.22;98975.41;5071016;28;20025;-79
2022/04/27 09:40:12;;;;;;;0.22;0.22;;;;;;;22.27;45.00;98977.06;5069893;28;20491;-78
2022/04/27 09:42:47;;;;;;;0.20;0.20;;;;;;;22.31;46.05;98968.97;5069826;28;20033;-79
2022/04/27 09:45:13;;;;;;;0.70;0.70;;;;;;;22.39;45.87;98976.97;5070962;28;20020;-77
2022/04/27 09:47:46;;;;;;;0.10;0.10;;;;;;;22.33;40.70;98980.31;5071181;28;20086;-77
2022/04/27 09:50:12;;;;;;;0.35;0.35;;;;;;;22.34;42.13;98981.91;5070613;28;20499;-77
2022/04/27 09:52:37;;;;;;;0.10;0.10;;;;;;;22.29;39.08;98963.88;5069697;28;20148;-79
2022/04/27 09:55:05;;;;;;;0.10;0.10;;;;;;;22.42;41.39;98969.22;5069762;28;20468;-79
2022/04/27 09:57:35;;;;;;;0.10;0.10;;;;;;;22.43;41.93;98966.16;5069492;28;20399;-79
2022/04/27 10:00:02;;;;;;;0.20;0.20;;;;;;;22.45;42.75;98973.94;5071015;28;20089;-78
2022/04/27 10:02:30;;;;;;;0.00;0.00;;;;;;;22.43;42.94;98966.16;5071124;28;20020;-79
2022/04/27 10:04:59;;;;;;;0.00;0.00;;;;;;;22.56;44.21;98974.97;5069671;28;20040;-79
2022/04/27 10:07:25;;;;;;;;;;;;;;;22.54;43.44;98961.72;5069821;28;20059;-76
2022/04/27 10:09:51;;;;;;;0.10;0.10;;;;;;;22.57;43.15;98968.38;5070563;28;20315;-79
2022/04/27 10:12:17;;;;;;;0.08;0.08;;;;;;;22.59;43.12;98959.84;5069311;28;20024;-79
2022/04/27 10:14:43;;;;;;;0.60;0.52;;;;;;;22.63;42.46;98956.06;5069632;28;20373;-79
2022/04/27 10:17:11;;;;;;;0.00;0.00;;;;;;;22.73;42.43;98962.06;5070820;28;20055;-78
2022/04/27 10:19:42;;;;;;;0.10;0.10;;;;;;;22.78;41.86;98954.38;5070493;28;20032;-78
2022/04/27 10:22:24;;;;;;;0.10;0.10;;;;;;;22.84;41.24;98946.72;5068925;28;20044;-79
2022/04/27 10:24:50;;;;;;;0.10;0.10;;;;;;;22.89;42.39;98960.03;5074080;28;20058;-78
2022/04/27 10:27:37;;;;;;;0.00;0.00;;;;;;;22.91;43.82;98946.03;5073311;28;20039;-78
2022/04/27 10:30:13;;;;;;;0.90;0.68;;;;;;;22.94;43.47;98953.50;5074905;28;20532;-78
2022/04/27 10:32:43;;;;;;;0.52;0.43;;;;;;;22.85;43.29;98940.88;5074339;28;20044;-78
2022/04/27 10:35:11;;;;;;;0.25;0.25;;;;;;;22.92;43.50;98939.44;5074632;28;20029;-79
2022/04/27 10:37:54;;;;;;;0.20;0.20;;;;;;;22.91;44.45;98952.31;5073119;28;20043;-78
2022/04/27 10:40:40;;;;;;;0.28;0.20;;;;;;;22.93;45.00;98947.25;5074323;28;20021;-78
2022/04/27 10:43:08;;;;;;;3.08;1.13;;;;;;;23.03;44.90;98940.41;5074422;28;20029;-78
2022/04/27 10:45:41;;;;;;;0.20;0.20;;;;;;;23.09;44.82;98938.19;5074303;28;20031;-77
2022/04/27 10:48:08;;;;;;;0.25;0.22;;;;;;;23.18;45.28;98934.09;5074322;28;20060;-77
2022/04/27 10:50:35;;;;;;;0.10;0.10;;;;;;;23.21;43.41;98943.50;5073944;28;20488;-77
2022/04/27 10:53:40;;;;;;;0.30;0.30;;;;;;;23.20;43.58;98935.69;5074297;28;20037;-77
2022/04/27 10:56:23;;;;;;;0.20;0.20;;;;;;;23.18;43.67;98931.38;5062791;28;20427;-77
2022/04/27 10:58:49;;;;;;;0.00;0.00;;;;;;;23.27;43.37;98928.41;5074225;28;20044;-77
2022/04/27 11:01:18;;;;;;;0.40;0.40;;;;;;;23.27;42.32;98924.88;5074470;28;20472;-77
2022/04/27 11:03:52;;;;;;;0.10;0.10;;;;;;;23.43;42.39;98927.47;5074064;28;20016;-77
2022/04/27 11:06:19;;;;;;;0.20;0.20;;;;;;;23.32;40.74;98921.84;5073768;28;20075;-77
2022/04/27 11:08:47;;;;;;;0.17;0.17;;;;;;;23.36;40.81;98919.97;5072646;28;20020;-77
2022/04/27 11:11:16;;;;;;;0.10;0.10;;;;;;;23.38;40.74;98923.13;5072430;28;20516;-77
2022/04/27 11:13:42;;;;;;;0.10;0.10;;;;;;;23.39;40.40;98932.06;5073976;28;20032;-77
2022/04/27 11:16:08;;;;;;;0.17;0.17;;;;;;;23.43;39.76;98925.53;5072530;28;20468;-77
2022/04/27 11:18:52;;;;;;;0.05;0.05;;;;;;;23.53;39.72;98923.34;5073268;28;20055;-77
2022/04/27 11:21:19;;;;;;;0.00;0.00;;;;;;;23.61;40.66;98916.84;5073784;28;20032;-77
2022/04/27 11:23:45;;;;;;;0.00;0.00;;;;;;;23.69;39.95;98907.59;5073421;28;20074;-77
2022/04/27 11:26:11;;;;;;;0.00;0.00;;;;;;;23.73;38.61;98908.44;5073655;28;20043;-77
2022/04/27 11:28:40;;;;;;;0.30;0.28;;;;;;;23.85;38.84;98912.13;5073240;28;20472;-77
2022/04/27 11:31:06;;;;;;;0.00;0.00;;;;;;;23.79;38.09;98912.44;5073277;28;20116;-77
2022/04/27 11:33:35;;;;;;;0.25;0.25;;;;;;;23.78;38.48;98899.94;5073267;28;20030;-77
2022/04/27 11:36:01;;;;;;;0.05;0.05;;;;;;;23.83;38.20;98899.59;5072925;28;20536;-77
2022/04/27 11:38:35;;;;;;;0.30;0.30;;;;;;;23.78;37.56;98901.88;5072943;28;20024;-77
2022/04/27 11:41:02;;;;;;;0.10;0.10;;;;;;;23.82;38.99;98889.84;5073663;28;20103;-77
2022/04/27 11:43:29;;;;;;;0.20;0.20;;;;;;;23.87;38.38;98887.97;5073199;28;20096;-77
2022/04/27 11:45:55;;;;;;;0.20;0.20;;;;;;;23.80;37.84;98892.16;5073348;28;20071;-77
2022/04/27 11:48:22;;;;;;;0.10;0.10;;;;;;;23.81;37.94;98879.28;5073034;28;20031;-77
2022/04/27 11:50:48;;;;;;;1.38;0.98;;;;;;;23.93;36.85;98881.06;5073069;28;20041;-77
2022/04/27 11:53:15;;;;;;;1.38;0.90;;;;;;;23.91;37.14;98886.06;5073351;28;20032;-77
2022/04/27 11:55:41;;;;;;;0.35;0.30;;;;;;;23.89;36.89;98878.25;5072810;28;20033;-77
2022/04/27 11:58:07;;;;;;;0.00;0.00;;;;;;;23.94;35.90;98875.22;5072748;28;20400;-77